Time;durP1;ratioP1;P1;durP2;ratioP2;P2;SDS_P1;SDS_P2;PMS_P1;PMS_P2;Temp;Humidity;BMP_temperature;BMP_pressure;BME280_temperature;BME280_humidity;BME280_pressure;Samples;Min_cycle;Max_cycle;Signal;HPM_P1;HPM_P2
2022/02/03 00:01:09;;;;;;;13.00;7.90;;;0.20;99.90;;;;;;5032138;28;20216;-78
2022/02/03 00:03:50;;;;;;;11.10;6.77;;;0.10;99.90;;;;;;5033202;28;20185;-79
2022/02/03 00:06:24;;;;;;;11.70;7.07;;;0.20;99.90;;;;;;5034877;28;20186;-79
2022/02/03 00:09:14;;;;;;;14.40;8.60;;;0.00;99.90;;;;;;5036137;28;20183;-78
2022/02/03 00:23:14;;;;;;;13.63;7.17;;;-0.10;99.90;;;;;;5036277;28;20235;-78
2022/02/03 00:25:42;;;;;;;13.00;7.47;;;-0.10;99.90;;;;;;5034609;28;20671;-78
2022/02/03 00:28:17;;;;;;;10.07;6.67;;;-0.20;99.90;;;;;;5035573;28;20274;-78
2022/02/03 00:48:12;;;;;;;14.63;7.50;;;-0.20;99.90;;;;;;5035707;28;20184;-79
2022/02/03 00:49:37;;;;;;;15.00;8.33;;;-0.30;99.90;;;;;;5036166;28;20586;-78
2022/02/03 00:52:03;;;;;;;13.43;8.17;;;-0.30;99.90;;;;;;5042075;28;20204;-78
2022/02/03 00:54:32;;;;;;;14.53;7.27;;;-0.20;99.90;;;;;;5050686;28;20206;-78
2022/02/03 00:57:07;;;;;;;10.30;7.47;;;-0.30;99.90;;;;;;5050590;28;20252;-78
2022/02/03 00:59:44;;;;;;;13.57;7.73;;;-0.30;99.90;;;;;;5045457;28;20230;-78
2022/02/03 01:02:14;;;;;;;15.90;8.47;;;-0.30;99.90;;;;;;5039806;28;20227;-78
2022/02/03 01:04:42;;;;;;;15.73;7.30;;;-0.30;99.90;;;;;;5036138;28;20185;-78
2022/02/03 01:07:10;;;;;;;15.23;8.47;;;-0.40;99.90;;;;;;5034969;28;20649;-79
2022/02/03 01:09:40;;;;;;;11.67;7.30;;;-0.30;99.90;;;;;;5039183;28;20188;-78
2022/02/03 01:12:24;;;;;;;14.13;8.43;;;-0.40;99.90;;;;;;5040931;28;20180;-78
2022/02/03 01:17:30;;;;;;;14.23;8.20;;;-0.40;99.90;;;;;;5033597;28;20710;-79
2022/02/03 01:45:02;;;;;;;16.63;9.30;;;-0.80;99.90;;;;;;5034859;28;20238;-78
2022/02/03 01:53:04;;;;;;;12.37;6.70;;;-1.00;99.90;;;;;;5037738;28;20171;-79
2022/02/03 01:55:30;;;;;;;16.40;9.07;;;-1.00;99.90;;;;;;5029150;28;20196;-78
2022/02/03 01:58:09;;;;;;;13.70;7.53;;;-1.00;99.90;;;;;;5058963;28;20195;-78
2022/02/03 02:00:41;;;;;;;17.07;8.90;;;-1.00;99.90;;;;;;5059031;28;20191;-79
2022/02/03 02:03:15;;;;;;;17.80;8.53;;;-1.00;99.90;;;;;;5059112;28;20146;-78
2022/02/03 02:06:16;;;;;;;19.73;9.10;;;-1.10;99.90;;;;;;5058886;28;20182;-79
2022/02/03 02:09:03;;;;;;;20.47;8.97;;;-1.10;99.90;;;;;;5032971;28;20288;-79
2022/02/03 02:12:44;;;;;;;17.27;10.53;;;-1.10;99.90;;;;;;5038651;28;20181;-79
2022/02/03 02:42:40;;;;;;;14.30;7.37;;;-1.30;99.90;;;;;;5034939;28;20547;-79
2022/02/03 02:45:15;;;;;;;16.03;7.83;;;0.50;99.90;;;;;;5034067;28;20263;-79
2022/02/03 02:53:27;;;;;;;12.90;7.87;;;-1.30;99.90;;;;;;5500435;22;20365;-77
2022/02/03 03:30:26;;;;;;;8.23;5.00;;;-1.30;99.90;;;;;;5032874;28;20193;-78
2022/02/03 03:35:48;;;;;;;8.60;5.30;;;-1.20;99.90;;;;;;5032686;28;20548;-78
2022/02/03 03:38:18;;;;;;;11.57;5.50;;;-1.10;99.90;;;;;;5032721;28;20173;-78
2022/02/03 03:40:49;;;;;;;13.50;6.00;;;-1.20;99.90;;;;;;5036319;28;20207;-78
2022/02/03 03:43:26;;;;;;;8.77;5.33;;;-0.80;99.90;;;;;;5036909;28;20720;-78
2022/02/03 03:45:53;;;;;;;8.53;4.50;;;1.00;99.90;;;;;;5036365;28;20173;-78
2022/02/03 03:48:25;;;;;;;12.00;5.60;;;-0.80;99.90;;;;;;5018830;28;20180;-78
2022/02/03 03:50:53;;;;;;;10.13;4.90;;;-0.80;99.90;;;;;;5035197;28;20183;-78
2022/02/03 03:53:31;;;;;;;6.90;4.67;;;1.30;99.90;;;;;;5051285;28;20717;-77
2022/02/03 03:56:07;;;;;;;11.00;5.47;;;-0.80;99.90;;;;;;5055469;28;20170;-77
2022/02/03 03:59:02;;;;;;;8.63;5.23;;;0.10;99.90;;;;;;5055290;28;20200;-78
2022/02/03 05:05:36;;;;;;;12.87;6.00;;;-1.00;99.90;;;;;;5063575;28;20653;-77
2022/02/03 05:14:21;;;;;;;11.23;5.57;;;-1.00;99.90;;;;;;5055212;28;20192;-79
2022/02/03 05:17:05;;;;;;;12.57;5.13;;;-1.00;99.90;;;;;;5040135;28;20194;-77
2022/02/03 05:44:12;;;;;;;10.97;5.57;;;-0.80;99.90;;;;;;5050086;28;20341;-77
2022/02/03 05:55:12;;;;;;;8.83;5.47;;;-0.90;99.90;;;;;;5048470;28;20210;-79
2022/02/03 06:05:49;;;;;;;7.27;5.10;;;;;;;;;;5058801;28;20667;-78
2022/02/03 06:16:32;;;;;;;12.43;6.23;;;;;;;;;;5059125;28;20631;-77
2022/02/03 06:21:48;;;;;;;16.63;5.97;;;-0.70;99.90;;;;;;5055876;28;20347;-79
2022/02/03 06:29:28;;;;;;;15.60;8.20;;;0.00;99.90;;;;;;5062334;28;20250;-80
2022/02/03 06:31:54;;;;;;;15.13;8.43;;;-0.60;99.90;;;;;;5046806;28;20180;-81
2022/02/03 06:34:21;;;;;;;13.40;7.10;;;-0.60;99.90;;;;;;5059461;28;20188;-81
2022/02/03 06:36:50;;;;;;;16.03;8.53;;;-0.60;99.90;;;;;;5052127;28;20182;-80
2022/02/03 06:39:20;;;;;;;14.57;8.87;;;-0.70;99.90;;;;;;5053881;28;20179;-80
2022/02/03 06:41:50;;;;;;;14.93;8.13;;;-0.70;99.90;;;;;;5052790;28;20306;-81
2022/02/03 06:44:17;;;;;;;21.50;9.13;;;-0.40;99.90;;;;;;5054096;28;20183;-80
2022/02/03 06:46:47;;;;;;;20.43;8.23;;;-0.10;99.90;;;;;;5052417;28;20249;-80
2022/02/03 06:49:31;;;;;;;18.10;9.67;;;-0.70;99.90;;;;;;5052192;28;20171;-80
2022/02/03 06:58:02;;;;;;;14.67;8.50;;;-0.40;99.90;;;;;;5047861;28;20191;-81
2022/02/03 07:00:36;;;;;;;11.40;6.47;;;-0.20;99.90;;;;;;5038104;28;20214;-80
2022/02/03 07:03:04;;;;;;;11.03;6.20;;;-0.20;99.90;;;;;;5059099;28;20185;-81
2022/02/03 07:05:30;;;;;;;19.57;9.13;;;;;;;;;;5052471;28;20176;-80
2022/02/03 07:07:56;;;;;;;13.83;8.07;;;-0.30;99.90;;;;;;5035894;28;20199;-79
2022/02/03 07:10:23;;;;;;;17.33;7.90;;;-0.20;99.90;;;;;;5053472;28;20183;-80
2022/02/03 07:12:48;;;;;;;14.10;8.23;;;-0.20;99.90;;;;;;5035878;28;20175;-80
2022/02/03 07:15:14;;;;;;;18.53;9.43;;;-0.30;99.90;;;;;;5052575;28;20715;-80
2022/02/03 07:17:40;;;;;;;19.03;8.80;;;-0.30;99.90;;;;;;5052495;28;20175;-80
2022/02/03 07:20:09;;;;;;;16.93;9.00;;;1.90;99.90;;;;;;5053799;28;20180;-81
2022/02/03 07:22:35;;;;;;;16.93;8.90;;;-0.30;99.90;;;;;;5051802;28;20177;-80
2022/02/03 07:25:02;;;;;;;19.67;8.50;;;-0.20;99.90;;;;;;5052011;28;20225;-80
2022/02/03 07:27:28;;;;;;;18.17;9.77;;;0.60;99.90;;;;;;5053547;28;20187;-80
2022/02/03 07:29:54;;;;;;;17.10;9.40;;;-0.20;99.90;;;;;;5052731;28;20179;-80
2022/02/03 07:32:21;;;;;;;15.80;9.67;;;-0.20;99.90;;;;;;5019914;28;20182;-79
2022/02/03 07:34:52;;;;;;;18.03;8.90;;;-0.20;99.90;;;;;;5057397;28;20179;-80
2022/02/03 07:37:18;;;;;;;17.00;8.90;;;-0.20;99.90;;;;;;5056440;28;20710;-80
2022/02/03 07:39:50;;;;;;;18.50;9.70;;;-0.10;99.90;;;;;;5056948;28;20199;-80
2022/02/03 07:42:16;;;;;;;20.47;8.27;;;0.80;99.90;;;;;;5057609;28;20215;-80
2022/02/03 07:44:42;;;;;;;18.13;9.20;;;;;;;;;;5072838;28;20183;-80
2022/02/03 07:47:07;;;;;;;22.50;9.57;;;0.00;99.90;;;;;;5060067;28;20171;-82
2022/02/03 07:49:34;;;;;;;22.10;11.37;;;0.20;99.90;;;;;;5077335;28;20159;-80
2022/02/03 07:52:02;;;;;;;18.47;9.57;;;0.30;99.90;;;;;;5077036;28;20238;-86
2022/02/03 07:54:29;;;;;;;18.07;9.60;;;1.40;99.90;;;;;;5070009;28;20175;-80
2022/02/03 07:56:54;;;;;;;16.93;9.73;;;0.30;99.90;;;;;;5058513;28;20177;-79
2022/02/03 07:59:20;;;;;;;17.30;9.00;;;0.20;99.90;;;;;;5059282;28;20271;-81
2022/02/03 08:01:46;;;;;;;14.83;8.47;;;0.40;99.90;;;;;;5076573;28;20223;-80
2022/02/03 08:04:12;;;;;;;13.20;8.27;;;1.20;99.90;;;;;;5075215;28;20180;-80
2022/02/03 08:06:43;;;;;;;16.03;8.67;;;0.30;99.90;;;;;;5074142;28;20183;-81
2022/02/03 08:09:21;;;;;;;18.30;8.23;;;0.30;99.90;;;;;;5064068;28;20187;-80
2022/02/03 08:11:49;;;;;;;15.60;7.70;;;0.30;99.90;;;;;;5043479;28;20203;-81
2022/02/03 08:14:20;;;;;;;12.93;7.80;;;1.00;99.90;;;;;;5055843;28;20202;-80
2022/02/03 08:16:52;;;;;;;15.17;8.80;;;0.20;99.90;;;;;;5051428;28;20230;-81
2022/02/03 08:19:25;;;;;;;12.27;6.90;;;;;;;;;;5051054;28;20240;-80
2022/02/03 08:24:47;;;;;;;18.73;8.80;;;;;;;;;;5038894;28;20196;-80
2022/02/03 08:32:46;;;;;;;17.47;10.10;;;0.90;99.90;;;;;;5055614;28;20194;-81
2022/02/03 08:37:47;;;;;;;16.60;9.37;;;0.70;99.90;;;;;;5054410;28;20188;-81
2022/02/03 08:43:16;;;;;;;25.70;14.57;;;;;;;;;;5021598;28;20188;-81
2022/02/03 08:45:44;;;;;;;19.70;10.77;;;0.50;99.90;;;;;;5038379;28;20624;-79
2022/02/03 08:48:11;;;;;;;26.27;13.27;;;0.80;99.90;;;;;;5037685;28;20651;-81
2022/02/03 08:50:38;;;;;;;22.30;12.03;;;;;;;;;;5054358;28;20261;-80
2022/02/03 08:53:12;;;;;;;22.53;12.47;;;0.80;99.90;;;;;;5055203;28;20314;-81
2022/02/03 08:55:50;;;;;;;30.30;15.10;;;1.00;99.90;;;;;;5064512;28;20627;-80
2022/02/03 08:58:36;;;;;;;25.27;13.70;;;2.20;99.90;;;;;;5059501;28;20274;-80
2022/02/03 09:36:46;;;;;;;30.33;14.57;;;1.20;99.90;;;;;;5052836;28;20237;-78
2022/02/03 09:57:54;;;;;;;46.63;21.20;;;1.60;99.90;;;;;;5060918;28;20240;-81
2022/02/03 10:00:26;;;;;;;58.97;31.53;;;1.50;99.90;;;;;;5057837;28;20183;-79
2022/02/03 10:03:07;;;;;;;36.50;18.37;;;1.40;99.90;;;;;;5052540;28;20233;-80
2022/02/03 10:05:42;;;;;;;36.47;17.87;;;;;;;;;;5055868;28;20179;-81
2022/02/03 10:08:13;;;;;;;29.57;16.20;;;1.60;99.90;;;;;;5062719;28;20206;-80
2022/02/03 10:10:39;;;;;;;17.60;9.90;;;1.60;99.90;;;;;;5073303;28;20180;-80
2022/02/03 10:13:22;;;;;;;19.37;10.13;;;1.80;99.90;;;;;;5037003;28;20646;-80
2022/02/03 10:16:03;;;;;;;26.60;15.43;;;1.80;99.90;;;;;;5064420;28;20227;-80
2022/02/03 10:18:30;;;;;;;25.43;14.07;;;1.80;99.90;;;;;;5058279;28;20179;-80
2022/02/03 10:20:57;;;;;;;18.97;10.63;;;1.90;99.90;;;;;;5073080;28;20215;-81
2022/02/03 10:23:25;;;;;;;19.47;12.20;;;2.00;99.90;;;;;;5071608;28;20171;-79
2022/02/03 10:25:55;;;;;;;18.37;11.53;;;;;;;;;;5073243;28;20778;-80
2022/02/03 10:28:24;;;;;;;21.93;13.27;;;1.90;99.90;;;;;;5055113;28;20194;-80
2022/02/03 10:31:00;;;;;;;25.47;13.27;;;1.80;99.90;;;;;;5062559;28;20644;-81
2022/02/03 10:33:34;;;;;;;28.73;14.77;;;1.80;99.90;;;;;;5036148;28;20183;-80
2022/02/03 10:36:07;;;;;;;22.30;12.97;;;;;;;;;;5055630;28;20179;-80
2022/02/03 11:08:07;;;;;;;18.47;8.53;;;1.60;99.90;;;;;;5052252;28;20546;-81
2022/02/03 11:10:39;;;;;;;12.13;7.57;;;1.60;99.90;;;;;;5067519;28;20190;-80
2022/02/03 11:13:05;;;;;;;16.37;7.90;;;1.60;99.90;;;;;;5055261;28;20175;-79
2022/02/03 11:15:33;;;;;;;15.20;7.83;;;1.90;99.90;;;;;;5070450;28;20761;-79
2022/02/03 11:18:04;;;;;;;18.23;7.63;;;2.00;99.90;;;;;;5071512;28;20186;-79
2022/02/03 11:20:32;;;;;;;16.90;8.50;;;1.80;99.90;;;;;;5067987;28;20211;-79
2022/02/03 12:20:43;;;;;;;17.47;8.33;;;0.90;99.90;;;;;;5064211;28;20263;-81
2022/02/03 12:23:28;;;;;;;16.27;8.00;;;1.20;99.90;;;;;;5062357;28;20253;-80
2022/02/03 12:26:00;;;;;;;15.67;8.60;;;1.20;99.90;;;;;;5061899;28;20175;-80
2022/02/03 12:28:33;;;;;;;18.70;9.90;;;1.30;99.90;;;;;;5049698;28;20544;-80
2022/02/03 12:31:55;;;;;;;19.47;9.10;;;1.20;99.90;;;;;;5045268;28;20192;-79
2022/02/03 12:40:02;;;;;;;21.03;11.17;;;1.20;99.90;;;;;;5064137;28;20313;-77
2022/02/03 12:45:23;;;;;;;17.83;9.50;;;1.30;99.90;;;;;;5054550;28;20192;-78
2022/02/03 12:47:52;;;;;;;19.37;10.03;;;1.40;99.90;;;;;;5063852;28;20172;-80
2022/02/03 12:50:26;;;;;;;16.17;8.93;;;3.30;99.90;;;;;;5062685;28;20615;-79
2022/02/03 12:52:52;;;;;;;14.70;8.13;;;1.50;99.90;;;;;;5062138;28;20215;-80
2022/02/03 12:55:23;;;;;;;14.07;7.67;;;2.50;99.90;;;;;;5059716;28;20188;-80
2022/02/03 12:57:50;;;;;;;12.57;6.03;;;1.60;99.90;;;;;;5064962;28;20167;-81
2022/02/03 13:01:27;;;;;;;12.27;7.60;;;2.20;99.90;;;;;;5065917;28;20171;-80
2022/02/03 13:03:15;;;;;;;14.97;7.40;;;1.50;99.90;;;;;;5054597;28;20529;-80
2022/02/03 13:05:49;;;;;;;13.23;7.40;;;1.50;99.90;;;;;;5061892;28;20634;-80
2022/02/03 13:08:15;;;;;;;16.17;7.90;;;1.50;99.90;;;;;;5063010;28;20171;-80
2022/02/03 13:10:41;;;;;;;12.73;7.67;;;1.50;99.90;;;;;;5043554;28;20180;-80
2022/02/03 13:13:22;;;;;;;11.50;7.17;;;1.40;99.90;;;;;;5050185;28;20177;-81
2022/02/03 13:15:47;;;;;;;13.20;8.03;;;1.40;99.90;;;;;;5063477;28;20178;-79
2022/02/03 13:18:21;;;;;;;15.57;8.63;;;1.40;99.90;;;;;;5040270;28;20180;-80
2022/02/03 13:23:30;;;;;;;14.43;8.23;;;2.20;99.90;;;;;;5053296;28;20187;-80
2022/02/03 13:26:10;;;;;;;19.10;8.63;;;1.70;99.90;;;;;;5047189;28;20224;-80
2022/02/03 13:28:43;;;;;;;17.83;8.80;;;1.70;99.90;;;;;;5053439;28;20168;-81
2022/02/03 13:34:24;;;;;;;16.67;8.23;;;1.80;99.90;;;;;;5053521;28;20188;-80
2022/02/03 13:36:57;;;;;;;13.27;7.90;;;1.80;99.90;;;;;;5053574;28;20177;-81
2022/02/03 13:39:28;;;;;;;14.17;8.50;;;4.10;99.90;;;;;;5053808;28;20254;-81
2022/02/03 13:42:11;;;;;;;15.53;8.47;;;2.60;99.90;;;;;;5054599;28;20220;-80
2022/02/03 13:44:37;;;;;;;18.37;7.93;;;3.00;99.90;;;;;;5053575;28;20176;-84
2022/02/03 13:47:24;;;;;;;14.30;8.23;;;3.30;99.90;;;;;;5054872;28;20172;-80
2022/02/03 13:50:29;;;;;;;12.17;7.27;;;1.80;99.90;;;;;;5052831;28;20184;-80
2022/02/03 14:15:14;;;;;;;9.73;5.13;;;1.40;99.90;;;;;;5053955;28;20705;-80
2022/02/03 14:23:23;;;;;;;6.33;4.80;;;1.30;99.90;;;;;;5056759;28;20184;-80
2022/02/03 14:28:22;;;;;;;9.10;5.33;;;1.30;99.90;;;;;;5074273;28;20206;-80
2022/02/03 14:30:52;;;;;;;10.43;5.30;;;2.30;99.90;;;;;;5076624;28;20187;-85
2022/02/03 14:33:27;;;;;;;8.23;5.40;;;2.10;99.90;;;;;;5077383;28;20172;-80
2022/02/03 14:35:53;;;;;;;8.10;4.63;;;1.20;99.90;;;;;;5077720;28;20242;-83
2022/02/03 14:38:25;;;;;;;12.70;5.10;;;1.70;99.90;;;;;;5067000;28;20184;-80
2022/02/03 14:41:07;;;;;;;10.30;5.57;;;1.40;99.90;;;;;;5057640;28;20246;-79
2022/02/03 14:43:33;;;;;;;16.23;6.77;;;;;;;;;;5064427;28;20203;-80
2022/02/03 14:46:01;;;;;;;9.67;5.47;;;1.30;99.90;;;;;;5075526;28;20187;-81
2022/02/03 14:48:27;;;;;;;8.00;5.30;;;1.20;99.90;;;;;;5074627;28;20208;-80
2022/02/03 14:50:55;;;;;;;14.03;6.30;;;1.20;99.90;;;;;;5075635;28;20243;-80
2022/02/03 14:53:31;;;;;;;9.93;5.23;;;1.20;99.90;;;;;;5065363;28;20223;-80
2022/02/03 14:58:41;;;;;;;10.33;5.83;;;1.20;99.90;;;;;;5052875;28;20237;-81
2022/02/03 15:01:11;;;;;;;11.77;5.17;;;1.10;99.90;;;;;;5054371;28;20779;-79
2022/02/03 15:03:37;;;;;;;9.27;4.57;;;1.20;99.90;;;;;;5058099;28;20210;-80
2022/02/03 15:06:08;;;;;;;9.27;5.40;;;;;;;;;;5052978;28;20213;-80
2022/02/03 15:11:37;;;;;;;10.23;4.90;;;1.10;99.90;;;;;;5058518;28;20237;-82
2022/02/03 15:13:51;;;;;;;10.80;5.37;;;0.90;99.90;;;;;;5063185;28;20190;-82
2022/02/03 15:16:17;;;;;;;10.73;6.23;;;0.80;99.90;;;;;;5059236;28;20186;-80
2022/02/03 15:18:43;;;;;;;13.23;6.20;;;1.00;99.90;;;;;;5073421;28;20182;-81
2022/02/03 15:21:12;;;;;;;12.90;6.40;;;2.60;99.90;;;;;;5073235;28;20573;-81
2022/02/03 15:23:37;;;;;;;12.87;7.27;;;1.30;99.90;;;;;;5073632;28;20190;-79
2022/02/03 15:26:05;;;;;;;8.37;4.87;;;1.70;99.90;;;;;;5055071;28;20179;-80
2022/02/03 15:28:31;;;;;;;13.80;6.80;;;1.00;99.90;;;;;;5037829;28;20274;-81
2022/02/03 15:30:57;;;;;;;16.50;7.73;;;2.60;99.90;;;;;;5049949;28;20282;-79
2022/02/03 15:33:27;;;;;;;14.37;7.67;;;0.90;99.90;;;;;;5056499;28;20192;-80
2022/02/03 15:35:59;;;;;;;15.77;7.30;;;0.80;99.90;;;;;;5056216;28;20263;-80
2022/02/03 15:38:26;;;;;;;16.70;7.17;;;1.00;99.90;;;;;;5055707;28;20655;-79
2022/02/03 15:40:54;;;;;;;15.70;7.20;;;0.80;99.90;;;;;;5054275;28;20211;-79
2022/02/03 15:43:38;;;;;;;16.70;8.30;;;2.60;99.90;;;;;;5058300;28;20517;-79
2022/02/03 15:46:04;;;;;;;16.80;8.73;;;0.70;99.90;;;;;;5056275;28;20727;-80
2022/02/03 15:48:36;;;;;;;16.33;8.77;;;0.80;99.90;;;;;;5055121;28;20252;-79
2022/02/03 16:17:37;;;;;;;736.30;381.80;;;0.80;99.90;;;;;;5070020;28;20228;-80
2022/02/03 16:20:10;;;;;;;136.97;67.63;;;1.60;99.90;;;;;;5063226;28;20179;-78
2022/02/03 16:22:55;;;;;;;432.60;249.13;;;0.60;99.90;;;;;;5064715;28;20690;-79
2022/02/03 16:52:47;;;;;;;33.23;16.97;;;0.80;99.90;;;;;;5033886;28;20248;-79
2022/02/03 16:55:17;;;;;;;55.10;29.27;;;0.70;99.90;;;;;;5051409;28;20186;-78
2022/02/03 16:57:44;;;;;;;31.03;17.93;;;2.40;99.90;;;;;;5052813;28;20178;-79
2022/02/03 17:00:15;;;;;;;30.87;18.57;;;0.60;99.90;;;;;;5056648;28;20180;-78
2022/02/03 17:02:41;;;;;;;21.77;11.97;;;0.50;99.90;;;;;;5037452;28;20208;-78
2022/02/03 17:05:08;;;;;;;20.73;10.90;;;0.50;99.90;;;;;;5053065;28;20271;-78
2022/02/03 17:07:34;;;;;;;20.73;11.77;;;0.70;99.90;;;;;;5053427;28;20561;-78
2022/02/03 17:10:00;;;;;;;19.10;12.10;;;0.50;99.90;;;;;;5053031;28;20690;-78
2022/02/03 17:12:26;;;;;;;24.40;12.93;;;0.50;99.90;;;;;;5035535;28;20184;-78
2022/02/03 17:14:52;;;;;;;19.30;9.17;;;0.90;99.90;;;;;;5052195;28;20250;-77
2022/02/03 17:17:20;;;;;;;11.97;6.33;;;0.20;99.90;;;;;;5064454;28;20222;-78
2022/02/03 17:19:50;;;;;;;23.17;12.23;;;0.30;99.90;;;;;;5053947;28;20234;-78
2022/02/03 17:22:19;;;;;;;28.40;14.67;;;0.50;99.90;;;;;;5053690;28;20203;-78
2022/02/03 17:24:58;;;;;;;21.20;11.83;;;;;;;;;;5060934;28;20183;-78
2022/02/03 17:27:30;;;;;;;23.80;11.73;;;0.40;99.90;;;;;;5051950;28;20182;-78
2022/02/03 17:30:08;;;;;;;19.27;12.37;;;1.30;99.90;;;;;;5042410;28;20563;-79
2022/02/03 18:53:18;;;;;;;27.73;15.03;;;2.20;99.90;;;;;;5048403;28;20697;-78
2022/02/03 20:05:43;;;;;;;60.87;26.33;;;;;;;;;;5041296;28;20195;-80
2022/02/03 20:10:39;;;;;;;62.60;31.23;;;0.60;99.90;;;;;;5059725;28;20190;-79
2022/02/03 20:13:04;;;;;;;133.93;48.43;;;0.50;99.90;;;;;;5045185;28;20261;-80
2022/02/03 20:15:37;;;;;;;173.27;59.30;;;1.90;99.90;;;;;;5057921;28;20278;-80
2022/02/03 20:18:10;;;;;;;57.33;26.57;;;1.40;99.90;;;;;;5050255;28;20185;-80
2022/02/03 20:20:36;;;;;;;54.30;22.47;;;0.60;99.90;;;;;;5064189;28;20180;-80
2022/02/03 20:23:04;;;;;;;59.33;26.50;;;1.10;99.90;;;;;;5046434;28;20185;-80
2022/02/03 20:25:30;;;;;;;139.40;43.73;;;;;;;;;;5063911;28;20560;-80
2022/02/03 20:27:56;;;;;;;53.47;23.90;;;0.60;99.90;;;;;;5062592;28;20271;-80
2022/02/03 20:30:21;;;;;;;61.47;25.73;;;0.60;99.90;;;;;;5062504;28;20268;-81
2022/02/03 20:32:47;;;;;;;317.83;87.43;;;;;;;;;;5066014;28;20190;-80
2022/02/03 20:35:13;;;;;;;483.80;117.27;;;0.70;99.90;;;;;;5061526;28;20195;-81
2022/02/03 20:37:39;;;;;;;296.60;80.57;;;0.70;99.90;;;;;;5068928;28;20187;-79
2022/02/03 20:40:05;;;;;;;56.87;27.77;;;0.60;99.90;;;;;;5058037;28;20582;-79
2022/02/03 20:42:31;;;;;;;147.53;49.67;;;1.60;99.90;;;;;;5055478;28;20203;-80
2022/02/03 20:44:57;;;;;;;340.73;80.23;;;0.70;99.90;;;;;;5038972;28;20195;-80
2022/02/03 20:47:25;;;;;;;49.70;24.37;;;0.70;99.90;;;;;;5056651;28;20187;-81
2022/02/03 20:49:51;;;;;;;63.20;23.27;;;0.90;99.90;;;;;;5068779;28;20183;-78
2022/02/03 20:52:18;;;;;;;47.90;20.87;;;1.30;99.90;;;;;;5075829;28;20280;-79
2022/02/03 20:54:47;;;;;;;59.53;25.27;;;1.20;99.90;;;;;;5074919;28;20171;-79
2022/02/03 20:57:14;;;;;;;47.70;21.60;;;2.80;99.90;;;;;;5050136;28;20180;-79
2022/02/03 21:00:15;;;;;;;188.23;47.73;;;0.70;99.90;;;;;;5057755;28;20207;-80
2022/02/03 21:05:05;;;;;;;95.77;33.93;;;;;;;;;;5077227;28;20196;-80
2022/02/03 21:07:33;;;;;;;68.87;23.93;;;0.70;99.90;;;;;;5076861;28;20243;-82
2022/02/03 21:10:00;;;;;;;60.53;23.73;;;0.80;99.90;;;;;;5077116;28;20191;-81
2022/02/03 21:12:26;;;;;;;45.40;23.43;;;0.70;99.90;;;;;;5063827;28;20176;-80
2022/02/03 21:14:54;;;;;;;54.37;24.97;;;0.80;99.90;;;;;;5054675;28;20715;-80
2022/02/03 21:17:23;;;;;;;115.93;34.00;;;2.70;99.90;;;;;;5063731;28;20179;-82
2022/02/03 21:19:49;;;;;;;47.33;19.33;;;0.60;99.90;;;;;;5077330;28;20243;-82
2022/02/03 21:22:15;;;;;;;42.87;19.87;;;0.70;99.90;;;;;;5077921;28;20231;-78
2022/02/03 21:24:40;;;;;;;43.93;21.60;;;1.80;99.90;;;;;;5077680;28;20187;-80
2022/02/03 21:27:11;;;;;;;45.50;21.00;;;0.70;99.90;;;;;;5042938;28;20644;-79
2022/02/03 21:29:40;;;;;;;55.53;23.50;;;0.70;99.90;;;;;;5055111;28;20164;-79
2022/02/03 21:32:05;;;;;;;41.53;19.93;;;2.70;99.90;;;;;;5054711;28;20208;-79
2022/02/03 21:34:31;;;;;;;127.00;38.80;;;0.70;99.90;;;;;;5056149;28;20209;-80
2022/02/03 21:36:57;;;;;;;58.30;23.57;;;0.70;99.90;;;;;;5038254;28;20248;-80
2022/02/03 21:39:22;;;;;;;158.70;50.87;;;0.70;99.90;;;;;;5054238;28;20696;-80
2022/02/03 21:41:48;;;;;;;41.57;21.23;;;1.40;99.90;;;;;;5055248;28;20269;-79
2022/02/03 21:44:15;;;;;;;46.33;20.97;;;0.60;99.90;;;;;;5053935;28;20184;-79
2022/02/03 21:46:42;;;;;;;59.10;23.07;;;0.70;99.90;;;;;;5054024;28;20197;-79
2022/02/03 21:49:08;;;;;;;93.03;33.90;;;0.60;99.90;;;;;;5053817;28;20202;-79
2022/02/03 21:51:40;;;;;;;52.53;22.03;;;2.30;99.90;;;;;;5054183;28;20184;-79
2022/02/03 21:54:08;;;;;;;45.80;20.67;;;;;;;;;;5054397;28;20223;-79
2022/02/03 21:56:34;;;;;;;79.37;29.77;;;0.70;99.90;;;;;;5053291;28;20203;-79
2022/02/03 21:59:06;;;;;;;61.93;24.30;;;0.70;99.90;;;;;;5037398;28;20661;-79
2022/02/03 22:01:33;;;;;;;56.97;21.77;;;0.70;99.90;;;;;;5052742;28;20743;-80
2022/02/03 22:03:59;;;;;;;44.73;19.83;;;0.70;99.90;;;;;;5052773;28;20203;-80
2022/02/03 22:06:25;;;;;;;41.53;18.63;;;0.70;99.90;;;;;;5053867;28;20523;-80
2022/02/03 22:08:50;;;;;;;33.77;17.27;;;0.70;99.90;;;;;;5035568;28;20874;-79
2022/02/03 22:11:16;;;;;;;42.97;19.03;;;1.20;99.90;;;;;;5052697;28;20190;-79
2022/02/03 22:13:42;;;;;;;36.83;16.97;;;2.20;99.90;;;;;;5053785;28;20215;-80
2022/02/03 22:16:11;;;;;;;41.23;17.20;;;0.70;99.90;;;;;;5052884;28;20176;-80
2022/02/03 22:18:37;;;;;;;42.23;17.83;;;0.70;99.90;;;;;;5036205;28;20211;-78
2022/02/03 22:21:58;;;;;;;43.07;18.80;;;0.60;99.90;;;;;;5052349;28;20242;-77
2022/02/03 22:42:49;;;;;;;35.40;15.67;;;0.80;99.90;;;;;;5053090;28;20268;-79
2022/02/03 22:45:20;;;;;;;35.07;15.53;;;0.60;99.90;;;;;;5052935;28;20171;-79
2022/02/03 22:48:14;;;;;;;33.03;16.70;;;0.60;99.90;;;;;;5036047;28;20686;-79
2022/02/03 22:50:40;;;;;;;40.93;15.47;;;0.60;99.90;;;;;;5051767;28;20233;-79
2022/02/03 22:53:06;;;;;;;35.80;14.97;;;0.40;99.90;;;;;;5051767;28;20241;-80
2022/02/03 22:55:35;;;;;;;37.30;15.63;;;0.60;99.90;;;;;;5035522;28;20202;-79
2022/02/03 23:01:04;;;;;;;35.73;16.50;;;0.60;99.90;;;;;;5051563;28;20550;-79
2022/02/03 23:03:32;;;;;;;39.37;16.27;;;0.80;99.90;;;;;;5053036;28;20267;-79
2022/02/03 23:05:58;;;;;;;35.70;16.37;;;0.60;99.90;;;;;;5052698;28;20180;-79
2022/02/03 23:08:38;;;;;;;40.40;15.67;;;1.50;99.90;;;;;;5035178;28;20183;-78
2022/02/03 23:11:30;;;;;;;35.13;16.50;;;;;;;;;;5037128;28;20187;-78
2022/02/03 23:16:41;;;;;;;29.80;14.97;;;0.60;99.90;;;;;;5051766;28;20215;-78
2022/02/03 23:22:13;;;;;;;26.87;14.33;;;;;;;;;;5052487;28;20246;-79
2022/02/03 23:24:48;;;;;;;35.13;16.13;;;0.60;99.90;;;;;;5051772;28;20668;-80
2022/02/03 23:29:46;;;;;;;39.03;14.53;;;0.60;99.90;;;;;;5052527;28;20658;-78
2022/02/03 23:32:13;;;;;;;32.40;14.47;;;0.50;99.90;;;;;;5034884;28;20197;-78
2022/02/03 23:34:42;;;;;;;39.37;14.37;;;0.60;99.90;;;;;;5051590;28;20628;-78
2022/02/03 23:37:07;;;;;;;36.93;15.07;;;2.40;99.90;;;;;;5053067;28;20190;-78
2022/02/03 23:39:50;;;;;;;35.47;15.80;;;0.50;99.90;;;;;;5058785;28;20180;-79
2022/02/03 23:45:17;;;;;;;41.40;16.90;;;0.80;99.90;;;;;;5059776;28;20225;-80
